createdAt,value
2022-09-22T00:02:17.129Z,29.82
2022-09-22T00:04:47.882Z,29.78
2022-09-22T00:07:20.246Z,29.80
2022-09-22T00:09:51.493Z,29.81
2022-09-22T00:12:22.069Z,29.83
2022-09-22T00:14:52.780Z,29.82
2022-09-22T00:17:25.038Z,29.84
2022-09-22T00:19:55.777Z,29.84
2022-09-22T00:22:27.318Z,29.85
2022-09-22T00:24:57.982Z,29.82
2022-09-22T00:27:29.287Z,29.82
2022-09-22T00:30:00.612Z,29.84
2022-09-22T00:32:32.860Z,29.82
2022-09-22T00:35:03.604Z,29.84
2022-09-22T00:37:34.703Z,29.85
2022-09-22T00:40:06.378Z,29.85
2022-09-22T00:42:37.417Z,29.82
2022-09-22T00:45:08.963Z,29.83
2022-09-22T00:47:43.613Z,29.83
2022-09-22T00:50:22.492Z,29.84
2022-09-22T00:53:00.339Z,29.84
2022-09-22T00:55:43.751Z,29.83
2022-09-22T00:58:19.006Z,29.84
2022-09-22T01:00:50.101Z,29.85
2022-09-22T01:03:29.732Z,29.87
2022-09-22T01:06:04.782Z,29.86
2022-09-22T01:08:37.094Z,29.86
2022-09-22T01:11:09.241Z,29.85
2022-09-22T01:13:48.778Z,29.85
2022-09-22T01:16:37.718Z,29.83
2022-09-22T01:19:08.490Z,29.83
2022-09-22T01:21:56.574Z,29.83
2022-09-22T01:25:10.629Z,29.83
2022-09-22T01:28:17.894Z,29.82
2022-09-22T01:31:00.562Z,29.82
2022-09-22T01:33:39.702Z,29.82
2022-09-22T01:36:49.794Z,29.83
2022-09-22T01:39:31.770Z,29.82
2022-09-22T01:42:27.755Z,29.83
2022-09-22T01:45:11.851Z,29.82
2022-09-22T01:47:58.472Z,29.81
2022-09-22T01:50:36.200Z,29.82
2022-09-22T01:53:13.344Z,29.83
2022-09-22T01:55:48.862Z,29.86
2022-09-22T01:58:35.171Z,29.85
2022-09-22T02:01:17.148Z,29.86
2022-09-22T02:03:54.010Z,29.84
2022-09-22T02:06:55.651Z,29.85
2022-09-22T02:09:28.057Z,29.83
2022-09-22T02:12:00.384Z,29.85
2022-09-22T02:14:31.782Z,29.84
2022-09-22T02:17:04.175Z,29.85
2022-09-22T02:19:41.282Z,29.83
2022-09-22T02:22:14.395Z,29.86
2022-09-22T02:24:46.378Z,29.88
2022-09-22T02:27:30.656Z,29.90
2022-09-22T02:30:04.050Z,29.86
2022-09-22T02:32:37.380Z,29.89
2022-09-22T02:35:10.619Z,29.89
2022-09-22T02:37:50.255Z,29.92
2022-09-22T02:40:36.288Z,29.90
2022-09-22T02:43:24.973Z,29.90
2022-09-22T02:46:08.144Z,29.91
2022-09-22T02:49:03.486Z,29.90
2022-09-22T02:51:34.997Z,29.92
2022-09-22T02:54:06.445Z,29.94
2022-09-22T02:56:37.862Z,29.96
2022-09-22T02:59:08.976Z,29.96
2022-09-22T03:01:40.571Z,29.98
2022-09-22T03:04:11.377Z,29.96
2022-09-22T03:06:42.094Z,29.96
2022-09-22T03:09:12.871Z,29.98
2022-09-22T03:11:43.842Z,30.00
2022-09-22T03:14:14.853Z,29.99
2022-09-22T03:16:45.859Z,30.00
2022-09-22T03:19:16.760Z,30.00
2022-09-22T03:21:47.772Z,30.02
2022-09-22T03:24:18.813Z,30.01
2022-09-22T03:26:49.646Z,30.01
2022-09-22T03:29:21.188Z,30.03
2022-09-22T03:31:52.115Z,30.03
2022-09-22T03:34:23.020Z,30.03
2022-09-22T03:36:54.191Z,30.04
2022-09-22T03:39:25.107Z,30.07
2022-09-22T03:41:55.947Z,30.08
2022-09-22T03:44:29.156Z,30.08
2022-09-22T03:46:59.893Z,30.09
2022-09-22T03:49:31.248Z,30.09
2022-09-22T03:52:01.944Z,30.11
2022-09-22T03:54:33.442Z,30.11
2022-09-22T03:57:04.136Z,30.11
2022-09-22T03:59:35.417Z,30.11
2022-09-22T04:02:07.165Z,30.10
2022-09-22T04:04:38.166Z,30.11
2022-09-22T04:07:08.998Z,30.12
2022-09-22T04:09:39.894Z,30.12
2022-09-22T04:12:11.450Z,30.12
2022-09-22T04:14:42.288Z,30.13
2022-09-22T04:17:13.600Z,30.17
2022-09-22T04:19:43.935Z,30.17
2022-09-22T04:22:14.509Z,30.15
2022-09-22T04:24:45.389Z,30.15
2022-09-22T04:27:19.965Z,30.15
2022-09-22T04:29:52.220Z,30.17
2022-09-22T04:32:23.043Z,30.19
2022-09-22T04:34:53.727Z,30.19
2022-09-22T04:37:24.312Z,30.19
2022-09-22T04:39:57.045Z,30.20
2022-09-22T04:42:27.924Z,30.19
2022-09-22T04:45:04.494Z,30.19
2022-09-22T04:47:36.220Z,30.20
2022-09-22T04:50:07.457Z,30.22
2022-09-22T04:52:38.193Z,30.23
2022-09-22T04:55:09.699Z,30.24
2022-09-22T04:57:40.686Z,30.25
2022-09-22T05:00:12.619Z,30.27
2022-09-22T05:02:43.484Z,30.28
2022-09-22T05:05:15.650Z,30.28
2022-09-22T05:07:48.924Z,30.29
2022-09-22T05:10:23.402Z,30.33
2022-09-22T05:12:56.232Z,30.30
2022-09-22T05:15:27.304Z,30.32
2022-09-22T05:17:58.318Z,30.34
2022-09-22T05:20:29.651Z,30.33
2022-09-22T05:23:01.689Z,30.35
2022-09-22T05:25:32.525Z,30.36
2022-09-22T05:28:03.443Z,30.36
2022-09-22T05:30:34.296Z,30.36
2022-09-22T05:33:05.069Z,30.37
2022-09-22T05:35:37.038Z,30.37
2022-09-22T05:38:08.007Z,30.40
2022-09-22T05:40:38.707Z,30.40
2022-09-22T05:43:09.453Z,30.40
2022-09-22T05:45:40.358Z,30.41
2022-09-22T05:48:11.403Z,30.45
2022-09-22T05:50:42.086Z,30.47
2022-09-22T05:53:14.066Z,30.45
2022-09-22T05:55:44.882Z,30.47
2022-09-22T05:58:16.226Z,30.47
2022-09-22T06:00:47.148Z,30.50
2022-09-22T06:03:17.839Z,30.48
2022-09-22T06:05:48.705Z,30.48
2022-09-22T06:08:20.158Z,30.51
2022-09-22T06:10:53.789Z,30.48
2022-09-22T06:13:24.576Z,30.49
2022-09-22T06:15:55.258Z,30.47
2022-09-22T06:18:27.972Z,30.47
2022-09-22T06:20:59.109Z,30.50
2022-09-22T06:23:30.133Z,30.48
2022-09-22T06:26:02.182Z,30.46
2022-09-22T06:28:32.877Z,30.49
2022-09-22T06:31:04.093Z,30.49
2022-09-22T06:33:35.044Z,30.49
2022-09-22T06:36:06.065Z,30.48
2022-09-22T06:38:36.813Z,30.51
2022-09-22T06:41:09.315Z,30.49
2022-09-22T06:43:40.523Z,30.51
2022-09-22T06:46:13.711Z,30.49
2022-09-22T06:48:44.564Z,30.49
2022-09-22T06:51:15.742Z,30.50
2022-09-22T06:53:51.675Z,30.48
2022-09-22T06:56:23.055Z,30.51
2022-09-22T06:59:09.524Z,30.49
2022-09-22T07:01:42.795Z,30.50
2022-09-22T07:04:15.026Z,30.51
2022-09-22T07:06:46.135Z,30.51
2022-09-22T07:09:16.811Z,30.52
2022-09-22T07:11:47.766Z,30.52
2022-09-22T07:14:18.535Z,30.55
2022-09-22T07:16:49.426Z,30.56
2022-09-22T07:19:20.276Z,30.59
2022-09-22T07:21:51.109Z,30.61
2022-09-22T07:24:22.188Z,30.58
2022-09-22T07:26:53.813Z,30.57
2022-09-22T07:29:24.559Z,30.58
2022-09-22T07:31:56.000Z,30.57
2022-09-22T07:34:26.792Z,30.58
2022-09-22T07:36:57.890Z,30.57
2022-09-22T07:39:28.543Z,30.58
2022-09-22T07:41:59.187Z,30.57
2022-09-22T07:44:48.486Z,30.56
2022-09-22T07:47:39.165Z,30.56
2022-09-22T07:50:10.384Z,30.57
2022-09-22T07:52:41.086Z,30.59
2022-09-22T07:55:12.423Z,30.60
2022-09-22T07:57:43.390Z,30.59
2022-09-22T08:00:15.039Z,30.62
2022-09-22T08:02:47.180Z,30.62
2022-09-22T08:05:18.963Z,30.62
2022-09-22T08:07:49.754Z,30.63
2022-09-22T08:10:22.178Z,30.60
2022-09-22T08:13:00.723Z,30.65
2022-09-22T08:15:31.647Z,30.63
2022-09-22T08:18:02.359Z,30.61
2022-09-22T08:20:33.359Z,30.61
2022-09-22T08:23:05.781Z,30.62
2022-09-22T08:25:37.493Z,30.62
2022-09-22T08:28:08.169Z,30.60
2022-09-22T08:30:39.292Z,30.62
2022-09-22T08:33:10.690Z,30.61
2022-09-22T08:35:41.837Z,30.62
2022-09-22T08:38:13.020Z,30.61
2022-09-22T08:40:46.221Z,30.62
2022-09-22T08:43:18.246Z,30.62
2022-09-22T08:45:50.451Z,30.63
2022-09-22T08:48:47.442Z,30.64
2022-09-22T08:51:51.504Z,30.65
2022-09-22T08:54:37.976Z,30.66
2022-09-22T08:57:13.601Z,30.65
2022-09-22T09:00:09.539Z,30.65
2022-09-22T09:02:55.786Z,30.66
2022-09-22T09:05:48.751Z,30.65
2022-09-22T09:08:44.151Z,30.66
2022-09-22T09:11:17.743Z,30.67
2022-09-22T09:14:12.275Z,30.66
2022-09-22T09:17:20.833Z,30.65
2022-09-22T09:20:00.560Z,30.67
2022-09-22T09:22:45.098Z,30.66
2022-09-22T09:25:23.829Z,30.67
2022-09-22T09:28:04.267Z,30.69
2022-09-22T09:31:05.130Z,30.71
2022-09-22T09:34:00.236Z,30.70
2022-09-22T09:36:35.770Z,30.69
2022-09-22T09:39:19.858Z,30.71
2022-09-22T09:41:51.936Z,30.71
2022-09-22T09:44:42.912Z,30.68
2022-09-22T09:47:43.613Z,30.68
2022-09-22T09:50:14.754Z,30.67
2022-09-22T09:52:45.840Z,30.67
2022-09-22T09:55:28.344Z,30.70
2022-09-22T09:58:14.218Z,30.68
2022-09-22T10:01:02.760Z,30.68
2022-09-22T10:03:37.602Z,30.68
2022-09-22T10:06:11.847Z,30.70
2022-09-22T10:08:54.314Z,30.68
2022-09-22T10:11:34.146Z,30.67
2022-09-22T10:14:05.104Z,30.70
2022-09-22T10:16:38.679Z,30.70
2022-09-22T10:19:25.643Z,30.72
2022-09-22T10:21:58.311Z,30.70
2022-09-22T10:24:35.201Z,30.71
2022-09-22T10:27:07.466Z,30.69
2022-09-22T10:29:38.629Z,30.71
2022-09-22T10:32:15.647Z,30.69
2022-09-22T10:34:54.618Z,30.71
2022-09-22T10:37:31.572Z,30.68
2022-09-22T10:40:08.027Z,30.70
2022-09-22T10:42:43.624Z,30.68
2022-09-22T10:45:21.910Z,30.68
2022-09-22T10:51:02.149Z,30.71
2022-09-22T10:53:49.616Z,30.70
2022-09-22T10:56:52.182Z,30.71
2022-09-22T10:59:55.793Z,30.72
2022-09-22T11:03:03.325Z,30.73
2022-09-22T11:06:10.627Z,30.73
2022-09-22T11:09:32.552Z,30.73
2022-09-22T11:12:29.930Z,30.72
2022-09-22T11:15:48.440Z,30.73
2022-09-22T11:18:53.273Z,30.72
2022-09-22T11:21:35.449Z,30.69
2022-09-22T11:24:34.726Z,30.68
2022-09-22T11:27:06.655Z,30.66
2022-09-22T11:29:59.799Z,30.68
2022-09-22T11:33:04.814Z,30.69
2022-09-22T11:36:14.591Z,30.71
2022-09-22T11:39:12.901Z,30.72
2022-09-22T11:42:09.315Z,30.73
2022-09-22T11:45:02.419Z,30.73
2022-09-22T11:47:51.672Z,30.74
2022-09-22T11:50:42.175Z,30.73
2022-09-22T11:53:34.759Z,30.75
2022-09-22T11:56:13.954Z,30.72
2022-09-22T11:58:47.513Z,30.71
2022-09-22T12:01:26.157Z,30.71
2022-09-22T12:04:05.886Z,30.71
2022-09-22T12:06:46.092Z,30.71
2022-09-22T12:09:44.145Z,30.71
2022-09-22T12:12:21.390Z,30.71
2022-09-22T12:15:03.334Z,30.73
2022-09-22T12:18:03.162Z,30.73
2022-09-22T12:21:06.257Z,30.76
2022-09-22T12:23:51.757Z,30.73
2022-09-22T12:26:31.769Z,30.74
2022-09-22T12:29:07.359Z,30.74
2022-09-22T12:31:43.653Z,30.75
2022-09-22T12:34:23.641Z,30.90
2022-09-22T12:37:02.410Z,30.86
2022-09-22T12:39:35.677Z,30.86
2022-09-22T12:42:20.944Z,30.92
2022-09-22T12:44:59.953Z,30.94
2022-09-22T12:47:41.335Z,30.89
2022-09-22T12:50:27.018Z,30.83
2022-09-22T12:52:57.555Z,30.82
2022-09-22T12:55:31.274Z,30.78
2022-09-22T12:58:05.585Z,30.84
2022-09-22T13:00:45.912Z,30.81
2022-09-22T13:03:28.960Z,30.79
2022-09-22T13:06:02.796Z,30.77
2022-09-22T13:08:36.349Z,30.60
2022-09-22T13:11:11.743Z,30.60
2022-09-22T13:13:51.019Z,30.56
2022-09-22T13:16:21.878Z,30.44
2022-09-22T13:18:56.665Z,30.41
2022-09-22T13:21:29.689Z,30.42
2022-09-22T13:24:01.390Z,30.39
2022-09-22T13:26:45.147Z,30.28
2022-09-22T13:29:24.965Z,30.13
2022-09-22T13:31:59.539Z,30.16
2022-09-22T13:34:37.233Z,30.18
2022-09-22T13:37:11.992Z,30.22
2022-09-22T13:39:48.081Z,30.25
2022-09-22T13:42:34.004Z,30.13
2022-09-22T13:45:17.501Z,30.23
2022-09-22T13:47:50.399Z,30.16
2022-09-22T13:50:24.259Z,30.21
2022-09-22T13:52:55.840Z,30.23
2022-09-22T13:55:33.761Z,30.28
2022-09-22T13:58:06.436Z,30.29
2022-09-22T14:01:09.059Z,30.31
2022-09-22T14:03:41.434Z,30.32
2022-09-22T14:06:39.498Z,30.35
2022-09-22T14:09:10.369Z,30.40
2022-09-22T14:11:41.862Z,30.63
2022-09-22T14:14:30.120Z,30.63
2022-09-22T14:17:00.782Z,30.62
2022-09-22T14:19:40.237Z,30.56
2022-09-22T14:22:26.412Z,30.55
2022-09-22T14:25:03.049Z,30.49
2022-09-22T14:27:35.716Z,30.44
2022-09-22T14:30:08.198Z,30.40
2022-09-22T14:32:47.144Z,30.37
2022-09-22T14:35:41.481Z,30.40
2022-09-22T14:38:18.569Z,30.44
2022-09-22T14:41:01.491Z,30.46
2022-09-22T14:43:44.705Z,30.40
2022-09-22T14:46:36.398Z,30.39
2022-09-22T14:49:38.091Z,30.40
2022-09-22T14:52:14.648Z,30.37
2022-09-22T14:54:47.423Z,30.34
2022-09-22T14:57:20.214Z,30.31
2022-09-22T15:00:14.667Z,30.34
2022-09-22T15:02:52.170Z,30.43
2022-09-22T15:05:32.878Z,30.33
2022-09-22T15:08:04.768Z,30.31
2022-09-22T15:10:37.884Z,30.41
2022-09-22T15:13:32.325Z,30.36
2022-09-22T15:16:03.395Z,30.40
2022-09-22T15:18:34.207Z,30.36
2022-09-22T15:21:31.612Z,30.35
2022-09-22T15:24:03.253Z,30.42
2022-09-22T15:26:37.666Z,30.34
2022-09-22T15:29:08.432Z,30.29
2022-09-22T15:31:39.634Z,30.28
2022-09-22T15:34:14.768Z,30.25
2022-09-22T15:36:49.518Z,30.24
2022-09-22T22:37:03.885Z,29.14
2022-09-22T22:39:35.284Z,29.15
2022-09-22T22:42:05.666Z,29.21
2022-09-22T22:44:37.847Z,29.22
2022-09-22T22:47:08.929Z,29.26
2022-09-22T22:49:39.630Z,29.28
2022-09-22T22:52:10.439Z,29.37
2022-09-22T22:54:41.378Z,29.37
2022-09-22T22:57:12.059Z,29.37
2022-09-22T22:59:42.762Z,29.34
2022-09-22T23:02:15.036Z,29.31
2022-09-22T23:04:45.839Z,29.28
2022-09-22T23:07:17.169Z,29.27
2022-09-22T23:09:48.027Z,29.23
2022-09-22T23:12:21.018Z,29.31
2022-09-22T23:14:51.931Z,29.33
2022-09-22T23:17:22.853Z,29.39
2022-09-22T23:19:53.632Z,29.40
2022-09-22T23:22:24.465Z,29.37
2022-09-22T23:24:55.081Z,29.38
2022-09-22T23:27:26.702Z,29.40
2022-09-22T23:29:59.441Z,29.41
2022-09-22T23:32:30.337Z,29.41
2022-09-22T23:35:01.045Z,29.41
2022-09-22T23:37:31.871Z,29.39
2022-09-22T23:40:02.460Z,29.40
2022-09-22T23:42:33.444Z,29.38
2022-09-22T23:45:04.426Z,29.36
2022-09-22T23:47:35.618Z,29.37
2022-09-22T23:50:06.498Z,29.36
2022-09-22T23:52:37.424Z,29.35
2022-09-22T23:55:08.773Z,29.33
2022-09-22T23:57:39.781Z,29.35
